Time;durP1;ratioP1;P1;durP2;ratioP2;P2;SDS_P1;SDS_P2;PMS_P1;PMS_P2;Temp;Humidity;BMP_temperature;BMP_pressure;BME280_temperature;BME280_humidity;BME280_pressure;Samples;Min_cycle;Max_cycle;Signal;HPM_P1;HPM_P2
2022/06/01 00:00:56;;;;;;;2.28;1.58;;;;;;;9.21;68.18;100726.13;5056926;28;20025;-44
2022/06/01 00:03:23;;;;;;;4.70;1.48;;;;;;;9.17;68.32;100725.66;5057424;28;20032;-44
2022/06/01 00:05:53;;;;;;;1.70;1.60;;;;;;;9.07;68.64;100727.75;5056744;28;20034;-43
2022/06/01 00:08:21;;;;;;;3.17;1.58;;;;;;;9.08;68.13;100732.94;5074367;28;20033;-43
2022/06/01 00:10:47;;;;;;;1.92;1.77;;;;;;;9.07;68.74;100741.16;5074138;28;20442;-43
2022/06/01 00:13:12;;;;;;;1.83;1.63;;;;;;;9.11;68.99;100750.50;5055819;28;20061;-43
2022/06/01 00:15:38;;;;;;;2.05;1.90;;;;;;;8.89;68.68;100718.13;5056143;28;20051;-43
2022/06/01 00:18:04;;;;;;;2.88;1.77;;;;;;;9.00;68.98;100742.84;5056546;28;20032;-43
2022/06/01 00:20:30;;;;;;;2.55;1.60;;;;;;;8.97;69.20;100736.03;5060017;28;20477;-44
2022/06/01 00:22:56;;;;;;;2.50;1.45;;;;;;;8.96;69.20;100745.06;5078476;28;20044;-44
2022/06/01 00:25:27;;;;;;;3.13;1.50;;;;;;;8.93;68.98;100740.03;5079076;28;20403;-43
2022/06/01 00:27:53;;;;;;;1.75;1.27;;;;;;;8.96;68.98;100750.41;5059584;28;20483;-44
2022/06/01 00:30:20;;;;;;;1.63;1.52;;;;;;;8.85;69.71;100730.22;5078303;28;20590;-43
2022/06/01 00:32:46;;;;;;;2.17;1.90;;;;;;;8.90;69.59;100735.06;5075404;28;20039;-43
2022/06/01 00:35:14;;;;;;;3.13;1.67;;;;;;;8.96;69.67;100739.69;5076131;28;20114;-48
2022/06/01 00:37:39;;;;;;;2.33;1.88;;;;;;;8.97;69.24;100737.84;5076293;28;20036;-44
2022/06/01 00:40:07;;;;;;;7.50;2.10;;;;;;;8.96;69.64;100734.34;5057749;28;20073;-44
2022/06/01 00:42:35;;;;;;;4.95;2.33;;;;;;;8.97;69.38;100738.69;5074728;28;20372;-43
2022/06/01 00:45:02;;;;;;;5.13;2.13;;;;;;;8.95;69.33;100735.34;5056892;28;20039;-43
2022/06/01 00:47:28;;;;;;;2.13;1.92;;;;;;;8.95;69.19;100738.00;5074635;28;20389;-44
2022/06/01 00:50:04;;;;;;;3.65;2.00;;;;;;;8.91;69.80;100732.22;5074015;28;20033;-43
2022/06/01 00:52:36;;;;;;;2.38;1.60;;;;;;;8.88;69.49;100735.22;5055989;28;20032;-44
2022/06/01 00:55:15;;;;;;;3.85;2.00;;;;;;;8.74;69.47;100711.88;5073832;28;20097;-44
2022/06/01 00:57:42;;;;;;;3.10;1.88;;;;;;;8.90;69.80;100743.91;5074106;28;20028;-46
2022/06/01 01:00:14;;;;;;;2.95;1.92;;;;;;;8.88;69.89;100735.22;5073747;28;20029;-44
2022/06/01 01:02:40;;;;;;;4.28;1.83;;;;;;;8.85;70.06;100738.25;5040072;28;20110;-43
2022/06/01 01:05:10;;;;;;;6.03;1.85;;;;;;;8.87;70.05;100748.78;5074455;28;20099;-45
2022/06/01 01:07:38;;;;;;;2.75;1.60;;;;;;;8.84;70.33;100741.94;5073924;28;20036;-48
2022/06/01 01:10:05;;;;;;;3.28;1.65;;;;;;;8.67;70.59;100721.59;5073778;28;20137;-43
2022/06/01 01:12:56;;;;;;;2.10;2.00;;;;;;;8.64;70.63;100717.44;5073302;28;20032;-48
2022/06/01 01:15:18;;;;;;;1.80;1.70;;;;;;;8.78;70.23;100741.81;5058525;28;20037;-44
2022/06/01 01:17:46;;;;;;;2.33;2.13;;;;;;;8.67;70.18;100733.16;5073961;28;20120;-42
2022/06/01 01:20:14;;;;;;;3.80;1.70;;;;;;;8.71;70.72;100747.88;5056265;28;20024;-43
2022/06/01 01:22:58;;;;;;;5.80;1.88;;;;;;;8.50;70.38;100716.31;5055275;28;20361;-44
2022/06/01 01:25:32;;;;;;;2.17;1.60;;;;;;;8.62;70.50;100738.19;5040694;28;20108;-43
2022/06/01 01:28:00;;;;;;;2.33;1.50;;;;;;;8.58;71.20;100736.88;5055897;28;20436;-43
2022/06/01 01:30:47;;;;;;;1.80;1.70;;;;;;;8.57;71.19;100735.22;5055640;28;20020;-44
2022/06/01 01:33:19;;;;;;;3.17;2.20;;;;;;;8.55;71.10;100731.03;5073574;28;20024;-44
2022/06/01 01:38:54;;;;;;;5.68;2.40;;;;;;;8.47;71.08;100726.56;5073692;28;20032;-45
2022/06/01 01:41:36;;;;;;;3.50;2.20;;;;;;;8.50;71.01;100731.56;5074018;28;20064;-45
2022/06/01 01:44:41;;;;;;;4.28;2.33;;;;;;;8.48;70.88;100729.03;5040110;28;20039;-43
2022/06/01 01:47:08;;;;;;;2.08;1.98;;;;;;;8.47;71.10;100726.56;5058790;28;20040;-43
2022/06/01 01:49:38;;;;;;;3.13;1.80;;;;;;;8.46;71.04;100725.72;5073719;28;20079;-43
2022/06/01 01:52:09;;;;;;;2.28;1.85;;;;;;;8.45;70.81;100728.56;5073502;28;20065;-45
2022/06/01 01:55:01;;;;;;;2.63;1.70;;;;;;;8.43;70.95;100736.78;5072920;28;20145;-43
2022/06/01 01:58:06;;;;;;;2.15;1.70;;;;;;;8.43;71.11;100730.56;5041833;28;20043;-46
2022/06/01 02:00:37;;;;;;;1.88;1.70;;;;;;;8.42;70.86;100731.59;5047030;28;20362;-44
2022/06/01 02:03:16;;;;;;;1.92;1.70;;;;;;;8.40;70.71;100730.91;5038884;28;20484;-46
2022/06/01 02:06:09;;;;;;;2.50;2.00;;;;;;;8.36;71.25;100733.09;5073580;28;20032;-44
2022/06/01 02:08:58;;;;;;;4.05;1.70;;;;;;;8.33;70.62;100731.56;5041907;28;20473;-45
2022/06/01 02:14:29;;;;;;;2.20;2.05;;;;;;;8.37;70.86;100732.06;5043975;28;20029;-44
2022/06/01 02:17:01;;;;;;;1.52;1.40;;;;;;;8.26;70.59;100709.19;5055327;28;20400;-44
2022/06/01 02:19:33;;;;;;;1.77;1.45;;;;;;;8.34;71.35;100729.75;5054103;28;20545;-44
2022/06/01 02:21:59;;;;;;;1.42;1.30;;;;;;;8.25;71.57;100723.59;5055003;28;20028;-44
2022/06/01 02:24:26;;;;;;;2.83;1.38;;;;;;;8.19;72.05;100726.97;5072164;28;20374;-46
2022/06/01 02:26:54;;;;;;;2.95;2.03;;;;;;;8.15;71.82;100722.94;5072272;28;20104;-45
2022/06/01 02:29:35;;;;;;;3.60;1.35;;;;;;;8.19;72.17;100734.13;5072083;28;20036;-43
2022/06/01 02:32:02;;;;;;;2.47;1.40;;;;;;;8.02;72.15;100712.75;5071858;28;20083;-44
2022/06/01 02:34:30;;;;;;;2.20;1.23;;;;;;;8.06;72.53;100723.97;5072238;28;20028;-44
2022/06/01 02:36:58;;;;;;;4.70;2.10;;;;;;;7.95;72.33;100704.59;5057729;28;20096;-44
2022/06/01 02:39:27;;;;;;;1.98;1.30;;;;;;;8.15;71.74;100728.28;5076341;28;20016;-44
2022/06/01 02:44:56;;;;;;;1.50;1.40;;;;;;;8.22;71.52;100729.28;5067262;28;20465;-45
2022/06/01 02:47:23;;;;;;;3.08;2.13;;;;;;;8.20;71.80;100733.13;5082690;28;20071;-43
2022/06/01 02:49:49;;;;;;;1.63;1.52;;;;;;;8.14;71.81;100723.97;5063040;28;20036;-43
2022/06/01 02:52:15;;;;;;;1.27;1.20;;;;;;;8.04;71.99;100723.28;5062265;28;20111;-43
2022/06/01 02:54:41;;;;;;;1.42;1.33;;;;;;;8.06;72.78;100729.31;5077547;28;20461;-44
2022/06/01 02:57:07;;;;;;;2.88;2.10;;;;;;;7.91;72.38;100705.09;5076622;28;20105;-45
2022/06/01 02:59:33;;;;;;;3.38;1.80;;;;;;;8.10;71.87;100727.97;5058177;28;20411;-43
2022/06/01 03:02:00;;;;;;;4.18;2.22;;;;;;;8.09;72.23;100727.13;5057835;28;20111;-43
2022/06/01 03:04:26;;;;;;;4.38;2.58;;;;;;;8.10;72.03;100728.81;5058097;28;20224;-43
2022/06/01 03:06:53;;;;;;;7.63;2.17;;;;;;;8.09;71.83;100729.81;5059072;28;20039;-62
2022/06/01 03:09:19;;;;;;;2.70;2.40;;;;;;;8.09;72.39;100727.13;5076078;28;20055;-50
2022/06/01 03:11:45;;;;;;;2.78;2.00;;;;;;;7.99;71.89;100717.66;5076638;28;20037;-43
2022/06/01 03:14:11;;;;;;;2.28;1.90;;;;;;;7.92;72.19;100696.91;5075293;28;20090;-43
2022/06/01 03:16:38;;;;;;;2.22;2.03;;;;;;;8.03;72.30;100729.66;5075323;28;20028;-43
2022/06/01 03:19:05;;;;;;;2.50;2.10;;;;;;;8.02;72.01;100727.97;5075333;28;20071;-43
2022/06/01 03:21:31;;;;;;;4.38;2.20;;;;;;;8.00;72.29;100738.03;5075008;28;20075;-45
2022/06/01 03:23:57;;;;;;;4.60;2.20;;;;;;;7.99;72.33;100725.66;5075752;28;20067;-43
2022/06/01 03:26:23;;;;;;;1.70;1.60;;;;;;;7.87;71.59;100723.31;5075322;28;20614;-44
2022/06/01 03:28:49;;;;;;;2.30;2.10;;;;;;;7.83;72.09;100726.53;5075163;28;20368;-44
2022/06/01 03:31:16;;;;;;;6.05;2.60;;;;;;;7.82;72.53;100728.38;5074976;28;20025;-45
2022/06/01 03:33:42;;;;;;;3.20;2.40;;;;;;;7.86;71.99;100734.22;5075281;28;20024;-43
2022/06/01 03:36:10;;;;;;;2.83;2.28;;;;;;;7.87;72.13;100741.22;5074638;28;20507;-45
2022/06/01 03:38:37;;;;;;;2.30;2.10;;;;;;;7.84;72.27;100742.41;5074960;28;20384;-46
2022/06/01 03:41:03;;;;;;;4.45;3.13;;;;;;;7.64;72.72;100715.19;5075034;28;20021;-45
2022/06/01 03:43:30;;;;;;;4.35;2.95;;;;;;;7.76;73.08;100739.72;5056885;28;20059;-43
2022/06/01 03:45:56;;;;;;;3.50;2.60;;;;;;;7.78;72.55;100742.22;5057690;28;20492;-43
2022/06/01 03:48:24;;;;;;;2.58;2.38;;;;;;;7.75;72.51;100749.56;5075549;28;20123;-44
2022/06/01 03:50:51;;;;;;;2.70;2.50;;;;;;;7.67;72.63;100735.38;5041362;28;20059;-43
2022/06/01 03:53:17;;;;;;;3.72;3.17;;;;;;;7.72;73.62;100743.72;5075620;28;20094;-45
2022/06/01 03:55:43;;;;;;;3.28;2.97;;;;;;;7.65;73.52;100746.25;5075124;28;20024;-43
2022/06/01 03:58:15;;;;;;;6.18;2.95;;;;;;;7.71;73.46;100753.59;5040221;28;20397;-46
2022/06/01 04:00:41;;;;;;;3.42;3.10;;;;;;;7.67;73.08;100740.72;5073981;28;20034;-44
2022/06/01 04:03:07;;;;;;;3.35;3.00;;;;;;;7.62;72.99;100737.75;5056499;28;20109;-46
2022/06/01 04:05:33;;;;;;;4.40;2.80;;;;;;;7.77;72.69;100756.59;5074071;28;20119;-43
2022/06/01 04:07:59;;;;;;;4.25;2.80;;;;;;;7.77;72.97;100756.59;5074237;28;20373;-44
2022/06/01 04:10:24;;;;;;;3.42;2.85;;;;;;;7.75;72.34;100756.78;5074192;28;20021;-44
2022/06/01 04:12:50;;;;;;;2.53;2.33;;;;;;;7.82;72.21;100765.78;5074115;28;20033;-46
2022/06/01 04:15:16;;;;;;;3.67;3.38;;;;;;;7.85;73.08;100760.09;5074545;28;20040;-43
2022/06/01 04:17:42;;;;;;;4.82;3.78;;;;;;;7.87;72.91;100762.59;5056629;28;20036;-46
2022/06/01 04:20:09;;;;;;;3.10;2.60;;;;;;;7.85;72.21;100752.06;5078696;28;20028;-43
2022/06/01 04:22:39;;;;;;;4.25;3.50;;;;;;;7.95;72.75;100767.97;5077742;28;20468;-43
2022/06/01 04:25:06;;;;;;;4.25;3.58;;;;;;;7.97;72.24;100771.28;5074113;28;20032;-43
2022/06/01 04:27:32;;;;;;;5.03;3.40;;;;;;;7.89;72.22;100752.56;5074249;28;20473;-43
2022/06/01 04:29:57;;;;;;;4.53;4.00;;;;;;;8.01;72.90;100766.44;5074231;28;20044;-43
2022/06/01 04:32:31;;;;;;;4.70;4.10;;;;;;;7.99;72.53;100769.28;5073850;28;20032;-43
2022/06/01 04:34:57;;;;;;;4.20;3.90;;;;;;;7.98;72.35;100770.28;5074473;28;20040;-43
2022/06/01 04:37:23;;;;;;;5.15;4.50;;;;;;;7.82;72.54;100747.09;5039354;28;20277;-44
2022/06/01 04:39:49;;;;;;;4.70;4.22;;;;;;;7.86;72.78;100759.09;5074114;28;20024;-43
2022/06/01 04:42:15;;;;;;;4.68;4.32;;;;;;;7.82;73.27;100744.41;5073379;28;20452;-43
2022/06/01 04:44:41;;;;;;;4.88;4.40;;;;;;;8.06;72.62;100764.06;5073373;28;20024;-45
2022/06/01 04:47:09;;;;;;;5.13;4.72;;;;;;;7.99;72.30;100755.09;5073211;28;20365;-44
2022/06/01 04:49:35;;;;;;;6.90;4.88;;;;;;;8.16;72.67;100774.63;5073097;28;20032;-46
2022/06/01 04:52:01;;;;;;;5.95;5.15;;;;;;;8.19;72.69;100777.78;5073307;28;20028;-43
2022/06/01 04:54:27;;;;;;;4.82;4.43;;;;;;;8.19;72.88;100764.41;5073419;28;20040;-45
2022/06/01 04:56:53;;;;;;;7.63;4.10;;;;;;;8.25;72.36;100773.59;5055689;28;20033;-44
2022/06/01 04:59:18;;;;;;;4.70;4.25;;;;;;;8.28;72.83;100779.44;5055130;28;20024;-44
2022/06/01 05:01:45;;;;;;;4.78;4.22;;;;;;;8.27;73.16;100779.59;5055199;28;20036;-45
2022/06/01 05:04:11;;;;;;;3.97;3.63;;;;;;;8.34;72.71;100783.28;5059643;28;20203;-43
2022/06/01 05:06:37;;;;;;;6.05;4.00;;;;;;;8.26;72.91;100754.66;5076483;28;20511;-43
2022/06/01 05:09:03;;;;;;;4.80;4.40;;;;;;;8.43;72.74;100781.41;5076925;28;20036;-43
2022/06/01 05:11:29;;;;;;;10.07;4.45;;;;;;;8.51;72.91;100784.91;5073794;28;20111;-42
2022/06/01 05:13:54;;;;;;;6.93;4.15;;;;;;;8.61;72.48;100781.19;5055859;28;20087;-42
2022/06/01 05:16:21;;;;;;;48.60;22.63;;;;;;;8.67;72.31;100778.69;5073427;28;20137;-42
2022/06/01 05:18:47;;;;;;;22.48;11.82;;;;;;;8.77;72.29;100786.50;5038345;28;20104;-43
2022/06/01 05:21:13;;;;;;;17.65;9.60;;;;;;;8.80;71.94;100783.44;5073182;28;20095;-44
2022/06/01 05:23:39;;;;;;;7.88;6.65;;;;;;;8.91;71.55;100783.09;5072732;28;20052;-43
2022/06/01 05:26:05;;;;;;;6.07;4.97;;;;;;;8.98;71.85;100785.88;5072448;28;20036;-43
2022/06/01 05:28:33;;;;;;;5.38;3.72;;;;;;;9.02;71.29;100789.88;5054561;28;20342;-43
2022/06/01 05:31:04;;;;;;;4.63;3.88;;;;;;;9.02;71.80;100787.19;5054646;28;20064;-43
2022/06/01 05:33:30;;;;;;;5.18;3.58;;;;;;;9.07;71.73;100789.38;5072878;28;20028;-45
2022/06/01 05:35:56;;;;;;;9.73;4.70;;;;;;;9.07;71.97;100794.72;5054452;28;20055;-43
2022/06/01 05:38:22;;;;;;;5.28;3.30;;;;;;;9.05;72.03;100786.88;5054951;28;20028;-43
2022/06/01 05:40:48;;;;;;;3.80;3.45;;;;;;;9.15;71.93;100794.66;5074264;28;20107;-42
2022/06/01 05:43:16;;;;;;;3.92;3.40;;;;;;;9.23;72.30;100797.31;5059530;28;20053;-44
2022/06/01 05:45:42;;;;;;;3.83;2.95;;;;;;;9.25;71.53;100799.84;5055285;28;20391;-43
2022/06/01 05:48:10;;;;;;;4.25;3.00;;;;;;;9.13;72.11;100785.97;5073148;28;20117;-44
2022/06/01 05:50:36;;;;;;;6.45;3.85;;;;;;;9.13;72.46;100801.22;5054833;28;20040;-42
2022/06/01 05:53:02;;;;;;;4.80;3.22;;;;;;;9.03;73.17;100796.91;5072758;28;20037;-45
2022/06/01 05:55:28;;;;;;;6.18;3.45;;;;;;;9.13;72.68;100803.91;5037731;28;20104;-43
2022/06/01 05:57:54;;;;;;;7.82;3.45;;;;;;;9.16;72.63;100800.88;5037950;28;20361;-43
2022/06/01 06:00:21;;;;;;;5.20;3.38;;;;;;;9.04;72.90;100790.53;5072639;28;20031;-44
2022/06/01 06:02:46;;;;;;;3.60;3.30;;;;;;;9.19;73.42;100814.75;5054363;28;20124;-45
2022/06/01 06:07:59;;;;;;;5.80;2.95;;;;;;;9.13;72.94;100795.88;5057567;28;20029;-45
2022/06/01 06:10:27;;;;;;;4.88;3.50;;;;;;;9.17;72.78;100803.38;5072995;28;20052;-43
2022/06/01 06:12:53;;;;;;;5.82;3.55;;;;;;;9.24;73.08;100817.72;5076112;28;20032;-44
2022/06/01 06:15:19;;;;;;;3.55;3.05;;;;;;;9.21;72.84;100806.53;5058271;28;20028;-44
2022/06/01 06:17:45;;;;;;;4.13;2.80;;;;;;;9.25;72.96;100811.38;5076599;28;20107;-44
2022/06/01 06:20:12;;;;;;;4.35;3.38;;;;;;;9.25;72.97;100813.22;5058587;28;20029;-43
2022/06/01 06:22:38;;;;;;;4.28;3.00;;;;;;;9.25;72.89;100814.06;5079620;28;20036;-43
2022/06/01 06:25:05;;;;;;;3.70;3.28;;;;;;;9.24;72.87;100815.06;5086554;28;20496;-43
2022/06/01 06:27:30;;;;;;;3.72;2.72;;;;;;;9.27;73.00;100811.22;5079796;28;20036;-44
2022/06/01 06:29:56;;;;;;;3.55;3.22;;;;;;;9.30;73.16;100817.06;5077513;28;20342;-44
2022/06/01 06:32:24;;;;;;;15.88;4.10;;;;;;;9.32;73.07;100816.84;5076657;28;20033;-43
2022/06/01 06:34:49;;;;;;;4.22;2.90;;;;;;;9.35;72.68;100811.16;5076025;28;20028;-43
2022/06/01 06:37:15;;;;;;;6.25;3.20;;;;;;;9.44;73.00;100811.94;5058236;28;20107;-43
2022/06/01 06:39:41;;;;;;;3.60;3.30;;;;;;;9.49;72.81;100823.78;5059027;28;20025;-43
2022/06/01 06:42:07;;;;;;;5.50;3.28;;;;;;;9.47;72.67;100819.59;5076516;28;20085;-46
2022/06/01 06:44:36;;;;;;;4.75;3.90;;;;;;;9.41;73.16;100810.41;5058190;28;20044;-43
2022/06/01 06:47:03;;;;;;;10.57;3.90;;;;;;;9.56;72.83;100823.06;5058181;28;20028;-44
2022/06/01 06:49:29;;;;;;;4.93;3.55;;;;;;;9.73;72.13;100826.47;5057694;28;20441;-44
2022/06/01 06:51:54;;;;;;;3.75;2.78;;;;;;;9.72;72.07;100806.88;5040641;28;20036;-45
2022/06/01 06:54:20;;;;;;;6.13;4.43;;;;;;;9.89;71.61;100827.16;5075501;28;20035;-44
2022/06/01 06:56:46;;;;;;;6.38;4.07;;;;;;;10.04;72.16;100829.06;5058495;28;20473;-43
2022/06/01 06:59:15;;;;;;;7.45;3.97;;;;;;;10.01;71.87;100822.22;5075125;28;20032;-44
2022/06/01 07:01:41;;;;;;;3.40;3.08;;;;;;;10.22;71.63;100834.94;5057460;28;20024;-43
2022/06/01 07:04:07;;;;;;;7.18;4.18;;;;;;;10.34;71.39;100832.66;5075477;28;20368;-43
2022/06/01 07:06:33;;;;;;;5.25;4.75;;;;;;;10.50;70.63;100829.00;5075181;28;20028;-43
2022/06/01 07:09:00;;;;;;;4.95;3.92;;;;;;;10.54;69.94;100805.28;5075399;28;20425;-46
2022/06/01 07:11:28;;;;;;;5.25;3.97;;;;;;;10.87;69.76;100834.47;5057892;28;20365;-44
2022/06/01 07:13:55;;;;;;;4.95;4.35;;;;;;;10.99;68.62;100844.53;5077578;28;20028;-44
2022/06/01 07:16:24;;;;;;;4.55;4.15;;;;;;;11.07;68.15;100846.31;5076111;28;20040;-43
2022/06/01 07:18:52;;;;;;;4.57;4.18;;;;;;;11.14;67.94;100841.00;5042534;28;20040;-44
2022/06/01 07:21:20;;;;;;;5.15;4.15;;;;;;;11.21;68.33;100842.75;5077851;28;20024;-42
2022/06/01 07:23:47;;;;;;;5.30;3.95;;;;;;;11.23;67.32;100821.06;5067528;28;20040;-43
2022/06/01 07:26:17;;;;;;;6.10;4.40;;;;;;;11.48;67.15;100844.91;5096956;28;20111;-43
2022/06/01 07:28:43;;;;;;;8.10;4.22;;;;;;;11.37;66.22;100844.41;5098001;28;20028;-42
2022/06/01 07:31:10;;;;;;;4.75;4.25;;;;;;;11.45;66.24;100856.88;5096158;28;20059;-42
2022/06/01 07:33:36;;;;;;;5.13;4.45;;;;;;;11.50;66.14;100859.84;5096107;28;20028;-42
2022/06/01 07:36:05;;;;;;;5.65;4.70;;;;;;;11.70;65.65;100853.81;5096189;28;20039;-42
2022/06/01 07:44:09;;;;;;;3.67;3.38;;;;;;;11.90;64.41;100860.28;5080957;28;20153;-43
2022/06/01 07:46:37;;;;;;;6.95;3.40;;;;;;;12.04;64.33;100860.41;5077633;28;20024;-42
2022/06/01 07:49:03;;;;;;;5.63;3.67;;;;;;;12.26;63.68;100863.88;5095083;28;20092;-43
2022/06/01 07:51:29;;;;;;;3.85;2.50;;;;;;;12.36;63.11;100848.25;5094892;28;20548;-44
2022/06/01 07:53:55;;;;;;;6.55;3.53;;;;;;;12.97;61.30;100867.28;5094901;28;20053;-43
2022/06/01 07:56:21;;;;;;;2.78;2.47;;;;;;;13.01;61.59;100861.50;5095015;28;20099;-43
2022/06/01 07:58:47;;;;;;;5.10;3.10;;;;;;;13.04;61.84;100861.94;5076359;28;20028;-44
2022/06/01 08:01:12;;;;;;;3.88;2.72;;;;;;;13.55;59.96;100866.91;5094865;28;20068;-44
2022/06/01 08:03:38;;;;;;;4.15;2.88;;;;;;;13.72;59.57;100850.34;5076687;28;20111;-43
2022/06/01 08:06:05;;;;;;;3.55;2.78;;;;;;;13.44;60.05;100863.97;5094568;28;20024;-43
2022/06/01 08:08:31;;;;;;;4.95;2.78;;;;;;;13.37;60.55;100872.03;5094487;28;20024;-46
2022/06/01 08:10:59;;;;;;;4.32;2.10;;;;;;;13.52;60.67;100866.47;5094187;28;20093;-44
2022/06/01 08:13:25;;;;;;;3.08;2.78;;;;;;;13.38;60.45;100867.50;5076595;28;20392;-42
2022/06/01 08:15:54;;;;;;;3.85;2.63;;;;;;;13.07;60.62;100875.00;5076705;28;20028;-44
2022/06/01 08:18:22;;;;;;;4.35;2.78;;;;;;;12.98;60.00;100866.25;5095569;28;20467;-43
2022/06/01 08:20:48;;;;;;;4.20;2.55;;;;;;;13.17;59.24;100870.06;5096578;28;20053;-42
2022/06/01 08:23:15;;;;;;;2.15;1.95;;;;;;;14.62;56.99;100869.72;5088858;28;20089;-43
2022/06/01 08:25:41;;;;;;;2.88;2.08;;;;;;;14.96;56.75;100862.34;5074045;28;20032;-44
2022/06/01 08:28:07;;;;;;;2.20;2.00;;;;;;;14.50;56.58;100882.16;5075363;28;20060;-43
2022/06/01 08:30:35;;;;;;;4.07;2.42;;;;;;;15.19;55.48;100867.28;5074274;28;20040;-43
2022/06/01 08:33:02;;;;;;;1.90;1.70;;;;;;;16.78;52.46;100850.91;5073813;28;20029;-43
2022/06/01 08:35:32;;;;;;;3.05;1.80;;;;;;;16.40;52.66;100865.47;5055490;28;20040;-43
2022/06/01 08:37:59;;;;;;;4.15;2.00;;;;;;;15.61;52.32;100874.97;5073111;28;20473;-44
2022/06/01 08:40:31;;;;;;;1.88;1.55;;;;;;;15.17;53.21;100877.47;5073248;28;20121;-43
2022/06/01 08:43:03;;;;;;;4.85;1.73;;;;;;;15.10;53.33;100871.28;5073581;28;20035;-43
2022/06/01 08:45:30;;;;;;;1.90;1.80;;;;;;;16.38;52.28;100867.59;5073052;28;20028;-43
2022/06/01 08:47:56;;;;;;;3.35;1.95;;;;;;;16.19;50.56;100874.00;5055097;28;20029;-43
2022/06/01 08:50:33;;;;;;;3.88;1.88;;;;;;;15.80;51.25;100886.78;5072979;28;20095;-43
2022/06/01 08:53:03;;;;;;;2.78;2.00;;;;;;;15.57;51.20;100882.72;5055823;28;20032;-43
2022/06/01 08:55:51;;;;;;;2.20;2.00;;;;;;;15.28;51.80;100884.94;5039434;28;20025;-43
2022/06/01 08:58:31;;;;;;;2.53;2.33;;;;;;;15.01;52.68;100875.25;5042180;28;20036;-43
2022/06/01 09:01:05;;;;;;;5.80;2.58;;;;;;;16.95;48.21;100888.34;5073196;28;20066;-43
2022/06/01 09:03:41;;;;;;;4.13;1.40;;;;;;;19.02;45.99;100880.66;5073025;28;20060;-43
2022/06/01 09:06:15;;;;;;;3.95;1.42;;;;;;;20.30;42.29;100871.34;5073207;28;20032;-43
2022/06/01 09:08:51;;;;;;;1.83;1.40;;;;;;;21.11;37.02;100878.22;5038561;28;20035;-44
2022/06/01 09:11:28;;;;;;;3.22;1.42;;;;;;;20.76;42.59;100877.50;5056128;28;20487;-43
2022/06/01 09:14:15;;;;;;;3.28;1.30;;;;;;;21.17;39.44;100866.28;5072880;28;20028;-44
2022/06/01 09:16:44;;;;;;;2.00;1.35;;;;;;;19.74;41.73;100871.19;5072837;28;20029;-43
2022/06/01 09:19:16;;;;;;;2.45;1.15;;;;;;;18.40;43.64;100880.28;5055129;28;20025;-43
2022/06/01 09:24:37;;;;;;;;;;;;;;;17.05;47.12;100891.38;5075667;28;20123;-43
2022/06/01 09:27:12;;;;;;;0.80;0.80;;;;;;;16.71;49.77;100895.44;5058384;28;20272;-43
2022/06/01 09:29:53;;;;;;;2.40;0.77;;;;;;;17.31;50.25;100884.78;5092922;28;20039;-43
2022/06/01 09:32:41;;;;;;;1.55;1.05;;;;;;;20.15;43.83;100876.53;5074774;28;20063;-44
2022/06/01 09:35:10;;;;;;;3.33;1.02;;;;;;;21.95;41.68;100874.25;5092916;28;20410;-43
2022/06/01 09:37:41;;;;;;;1.35;1.05;;;;;;;21.54;41.57;100877.38;5092861;28;20039;-43
2022/06/01 09:40:30;;;;;;;1.80;1.30;;;;;;;20.34;40.68;100880.66;5074944;28;20028;-42
2022/06/01 09:43:00;;;;;;;3.13;1.00;;;;;;;19.33;44.84;100886.72;5092642;28;20102;-44
2022/06/01 09:45:42;;;;;;;2.13;1.30;;;;;;;18.43;45.15;100893.44;5076180;28;20032;-42
2022/06/01 09:48:27;;;;;;;1.15;1.05;;;;;;;17.66;45.03;100894.13;5097127;28;20032;-42
2022/06/01 09:51:12;;;;;;;2.38;1.38;;;;;;;17.22;46.31;100908.69;5097077;28;20024;-43
2022/06/01 09:53:43;;;;;;;1.40;1.13;;;;;;;16.79;47.85;100912.25;5078408;28;20042;-49
2022/06/01 09:56:10;;;;;;;1.70;1.10;;;;;;;16.42;49.73;100904.03;5058948;28;20361;-42
2022/06/01 10:07:05;;;;;;;3.05;1.00;;;;;;;15.43;49.52;100909.03;5077507;28;20096;-42
2022/06/01 10:09:33;;;;;;;0.82;0.80;;;;;;;15.38;50.64;100916.09;5093367;28;20035;-42
2022/06/01 10:12:18;;;;;;;1.60;0.75;;;;;;;15.41;49.70;100924.63;5075244;28;20425;-42
2022/06/01 10:14:52;;;;;;;1.35;0.93;;;;;;;15.60;49.95;100920.19;5093814;28;20070;-42
2022/06/01 10:17:26;;;;;;;1.85;1.33;;;;;;;15.89;50.12;100926.09;5094728;28;20080;-43
2022/06/01 10:20:19;;;;;;;1.50;1.40;;;;;;;16.62;50.75;100924.72;5075553;28;20028;-43
2022/06/01 10:22:57;;;;;;;1.58;1.33;;;;;;;17.14;49.14;100925.28;5056619;28;20102;-43
2022/06/01 10:25:32;;;;;;;2.30;1.40;;;;;;;17.21;48.11;100925.19;5038623;28;20040;-43
2022/06/01 10:28:02;;;;;;;1.73;1.08;;;;;;;17.21;48.86;100927.91;5039241;28;20028;-42
2022/06/01 10:30:35;;;;;;;3.05;1.65;;;;;;;17.11;47.49;100936.59;5073372;28;20028;-43
2022/06/01 10:33:09;;;;;;;7.20;1.40;;;;;;;16.96;48.43;100923.38;5073422;28;20025;-42
2022/06/01 10:35:43;;;;;;;1.42;1.30;;;;;;;16.96;48.79;100912.53;5038455;28;20033;-42
2022/06/01 10:38:20;;;;;;;2.50;1.42;;;;;;;16.96;48.12;100925.28;5072934;28;20075;-43
2022/06/01 10:40:56;;;;;;;2.33;1.50;;;;;;;16.73;47.39;100942.16;5055126;28;20032;-43
2022/06/01 10:43:54;;;;;;;2.05;1.20;;;;;;;16.68;48.76;100948.25;5056690;28;20029;-42
2022/06/01 10:46:39;;;;;;;4.00;1.35;;;;;;;16.38;47.43;100937.22;5057158;28;20048;-42
2022/06/01 10:49:46;;;;;;;1.50;1.40;;;;;;;16.26;47.92;100948.78;5072693;28;20361;-42
2022/06/01 10:52:32;;;;;;;3.72;1.60;;;;;;;16.11;48.26;100942.84;5041233;28;20071;-41
2022/06/01 10:55:16;;;;;;;2.88;1.42;;;;;;;16.12;49.51;100958.06;5073256;28;20059;-43
2022/06/01 10:57:45;;;;;;;2.55;1.50;;;;;;;16.14;49.73;100957.81;5075197;28;20036;-42
2022/06/01 11:00:17;;;;;;;2.45;1.80;;;;;;;16.09;48.69;100952.25;5043028;28;20537;-42
2022/06/01 11:03:22;;;;;;;2.13;1.70;;;;;;;16.05;49.32;100960.81;5076629;28;20033;-43
2022/06/01 11:06:13;;;;;;;2.83;1.58;;;;;;;16.16;50.15;100962.00;5050016;28;20080;-42
2022/06/01 11:09:13;;;;;;;2.50;1.50;;;;;;;16.33;50.50;100965.00;5057618;28;20033;-43
2022/06/01 11:12:13;;;;;;;1.40;1.30;;;;;;;16.40;50.20;100973.91;5063215;28;20035;-44
2022/06/01 11:14:56;;;;;;;1.40;1.20;;;;;;;16.55;50.67;100964.63;5045597;28;20040;-43
2022/06/01 11:17:45;;;;;;;2.25;1.20;;;;;;;16.94;50.42;100978.94;5075561;28;20067;-44
2022/06/01 11:20:27;;;;;;;2.05;1.25;;;;;;;17.35;49.26;100947.59;5060424;28;20020;-44
2022/06/01 11:23:24;;;;;;;2.80;0.90;;;;;;;18.36;46.10;100964.22;5074939;28;20033;-43
2022/06/01 11:26:01;;;;;;;2.80;1.55;;;;;;;19.30;46.83;100958.84;5028484;28;20035;-44
2022/06/01 11:29:03;;;;;;;2.30;1.40;;;;;;;20.23;42.68;100956.03;5076533;28;20035;-44
2022/06/01 11:31:29;;;;;;;1.85;1.30;;;;;;;19.82;45.10;100949.84;5063723;28;20028;-43
2022/06/01 11:34:05;;;;;;;1.48;1.38;;;;;;;19.57;42.90;100941.94;5076118;28;20111;-43
2022/06/01 11:36:39;;;;;;;2.70;1.63;;;;;;;19.59;43.83;100949.88;5059234;28;20048;-45
2022/06/01 11:39:17;;;;;;;7.72;3.42;;;;;;;19.55;43.35;100955.00;5042382;28;20034;-43
2022/06/01 11:41:59;;;;;;;2.20;1.25;;;;;;;19.39;42.77;100953.00;5075650;28;20070;-45
2022/06/01 11:44:32;;;;;;;1.50;1.33;;;;;;;19.27;43.48;100950.31;5057135;28;20372;-45
2022/06/01 11:47:11;;;;;;;2.20;1.55;;;;;;;18.95;42.91;100943.38;5057053;28;20029;-43
2022/06/01 11:49:41;;;;;;;2.03;1.48;;;;;;;18.91;44.67;100952.25;5056420;28;20082;-45
2022/06/01 11:52:31;;;;;;;2.33;1.77;;;;;;;18.84;44.15;100960.53;5056728;28;20040;-44
2022/06/01 11:55:37;;;;;;;1.98;1.60;;;;;;;19.03;44.45;100965.84;5059964;28;20107;-44
2022/06/01 11:58:08;;;;;;;2.45;1.50;;;;;;;18.90;43.61;100961.47;5042481;28;20029;-44
2022/06/01 12:00:42;;;;;;;1.98;1.70;;;;;;;19.18;44.25;100965.38;5056571;28;20395;-45
2022/06/01 12:03:32;;;;;;;2.35;1.50;;;;;;;19.37;43.96;100968.78;5056298;28;20024;-45
2022/06/01 12:06:11;;;;;;;1.60;1.17;;;;;;;19.43;43.80;100946.84;5060194;28;20029;-43
2022/06/01 12:08:48;;;;;;;1.52;1.42;;;;;;;19.64;43.47;100966.34;5056749;28;20036;-44
2022/06/01 12:11:43;;;;;;;2.33;1.63;;;;;;;19.76;41.20;100960.88;5056665;28;20035;-45
2022/06/01 12:14:32;;;;;;;1.57;1.47;;;;;;;19.97;40.91;100970.28;5061288;28;20039;-45
2022/06/01 12:17:25;;;;;;;3.95;1.90;;;;;;;20.43;40.67;100969.22;5059851;28;20039;-45